Time;durP1;ratioP1;P1;durP2;ratioP2;P2;SDS_P1;SDS_P2;PMS_P1;PMS_P2;Temp;Humidity;BMP_temperature;BMP_pressure;BME280_temperature;BME280_humidity;BME280_pressure;Samples;Min_cycle;Max_cycle;Signal;HPM_P1;HPM_P2
2024/03/01 00:01:46;;;;;;;7.55;5.20;;;;;;;12.50;55.90;100153.25;4934864;28;113896;-74
2024/03/01 00:04:18;;;;;;;7.53;4.63;;;;;;;12.49;55.84;100151.56;4929225;28;114052;-75
2024/03/01 00:06:45;;;;;;;7.28;4.32;;;;;;;12.51;55.87;100154.09;4928212;28;123743;-76
2024/03/01 00:09:17;;;;;;;7.53;4.72;;;;;;;12.48;55.82;100144.53;4930196;28;124418;-75
2024/03/01 00:11:45;;;;;;;7.35;4.88;;;;;;;12.49;55.83;100151.56;4931365;28;113392;-75
2024/03/01 00:14:12;;;;;;;6.43;4.68;;;;;;;12.50;55.75;100147.09;4940640;28;114249;-75
2024/03/01 00:16:39;;;;;;;11.20;5.20;;;;;;;12.49;55.66;100143.59;4916948;28;124059;-75
2024/03/01 00:19:07;;;;;;;7.38;4.82;;;;;;;12.48;55.55;100139.22;4929565;28;123916;-75
2024/03/01 00:21:35;;;;;;;8.23;5.10;;;;;;;12.49;55.63;100130.31;4938553;28;113590;-75
2024/03/01 00:24:02;;;;;;;10.05;5.28;;;;;;;12.49;55.74;100130.31;4933002;28;113018;-75
2024/03/01 00:26:30;;;;;;;9.48;5.43;;;;;;;12.50;55.53;100132.00;4930696;28;123944;-75
2024/03/01 00:29:01;;;;;;;8.68;5.90;;;;;;;12.50;55.54;100134.66;4926376;28;124188;-75
2024/03/01 00:31:29;;;;;;;9.15;5.32;;;;;;;12.53;55.63;100131.81;4932624;28;112813;-75
2024/03/01 00:33:57;;;;;;;8.13;5.35;;;;;;;12.53;55.51;100126.50;4932094;28;113884;-75
2024/03/01 00:36:25;;;;;;;10.43;5.90;;;;;;;12.53;55.51;100121.19;4929314;28;123344;-75
2024/03/01 00:38:53;;;;;;;10.65;5.45;;;;;;;12.55;55.72;100129.06;4922048;28;123636;-74
2024/03/01 00:41:20;;;;;;;9.15;5.50;;;;;;;12.57;55.64;100122.69;4932306;28;115440;-75
2024/03/01 00:43:49;;;;;;;8.45;5.65;;;;;;;12.58;55.62;100118.22;4934542;28;114913;-75
2024/03/01 00:46:17;;;;;;;9.88;6.03;;;;;;;12.60;55.53;100122.50;4921223;28;123795;-75
2024/03/01 00:48:44;;;;;;;9.50;6.40;;;;;;;12.60;55.54;100118.97;4918180;28;123170;-75
2024/03/01 00:51:29;;;;;;;10.35;6.30;;;;;;;12.61;55.51;100115.38;4918238;28;114263;-75
2024/03/01 00:53:56;;;;;;;10.13;6.22;;;;;;;12.61;55.58;100110.91;4931943;28;114090;-75
2024/03/01 00:56:25;;;;;;;9.25;5.97;;;;;;;12.64;55.57;100113.38;4941982;28;123125;-74
2024/03/01 00:58:52;;;;;;;10.70;5.88;;;;;;;12.64;55.58;100113.38;4928604;28;123973;-73
2024/03/01 01:01:20;;;;;;;12.40;6.38;;;;;;;12.66;55.47;100105.31;4925769;28;114015;-75
2024/03/01 01:03:47;;;;;;;10.25;6.03;;;;;;;12.69;55.47;100120.19;4925359;28;114078;-74
2024/03/01 01:06:17;;;;;;;10.68;6.03;;;;;;;12.70;55.70;100106.81;4930373;28;124857;-74
2024/03/01 01:08:44;;;;;;;9.43;5.97;;;;;;;12.70;55.51;100096.19;4925183;28;123257;-75
2024/03/01 01:11:12;;;;;;;9.82;6.07;;;;;;;12.73;55.47;100097.78;4928976;28;114679;-74
2024/03/01 01:13:40;;;;;;;9.50;5.97;;;;;;;12.74;55.61;100096.84;4933520;28;114462;-75
2024/03/01 01:16:07;;;;;;;10.32;6.22;;;;;;;12.76;55.56;100100.25;4928724;28;124772;-74
2024/03/01 01:18:36;;;;;;;9.00;6.13;;;;;;;12.77;55.39;100096.63;4922810;28;123800;-74
2024/03/01 01:21:03;;;;;;;10.02;6.18;;;;;;;12.78;55.49;100088.53;4939911;28;113802;-74
2024/03/01 01:23:31;;;;;;;10.20;6.32;;;;;;;12.78;55.47;100087.69;4926626;28;113864;-74
2024/03/01 01:25:58;;;;;;;8.57;5.65;;;;;;;12.79;55.38;100086.72;4939253;28;123606;-74
2024/03/01 01:28:25;;;;;;;10.57;6.65;;;;;;;12.79;55.41;100089.38;4922729;28;123838;-74
2024/03/01 01:30:53;;;;;;;11.68;6.20;;;;;;;12.80;55.41;100085.78;4926524;28;115293;-74
2024/03/01 01:33:20;;;;;;;10.30;6.32;;;;;;;12.79;55.38;100084.94;4919998;28;114711;-74
2024/03/01 01:35:49;;;;;;;11.50;6.53;;;;;;;12.79;55.41;100073.44;4920960;28;124873;-74
2024/03/01 01:38:16;;;;;;;9.13;6.28;;;;;;;12.78;55.27;100077.06;4933927;28;123283;-74
2024/03/01 01:40:45;;;;;;;11.05;6.63;;;;;;;12.77;55.24;100075.34;4917060;28;114296;-75
2024/03/01 01:43:19;;;;;;;11.05;6.20;;;;;;;12.76;55.31;100076.31;4922602;28;113772;-74
2024/03/01 01:45:47;;;;;;;11.05;6.65;;;;;;;12.76;55.39;100078.97;4936248;28;124217;-75
2024/03/01 01:48:15;;;;;;;10.57;6.25;;;;;;;12.76;55.47;100078.97;4934456;28;123974;-75
2024/03/01 01:50:42;;;;;;;11.68;6.30;;;;;;;12.77;55.40;100072.69;4928849;28;113333;-74
2024/03/01 01:53:11;;;;;;;9.32;5.90;;;;;;;12.75;55.30;100064.84;4923676;28;113257;-75
2024/03/01 01:56:25;;;;;;;10.30;5.85;;;;;;;12.74;55.43;100064.94;4873576;28;124862;-75
2024/03/01 01:58:53;;;;;;;10.50;6.40;;;;;;;12.73;55.55;100057.91;4875334;28;123104;-75
2024/03/01 02:01:25;;;;;;;11.18;5.88;;;;;;;12.70;55.50;100058.13;4876134;28;114433;-75
2024/03/01 02:04:07;;;;;;;10.30;6.10;;;;;;;12.69;55.54;100051.13;4905029;22;113747;-68
2024/03/01 02:06:34;;;;;;;9.57;5.80;;;;;;;12.69;55.36;100053.78;4942509;28;123786;-68
2024/03/01 02:09:12;;;;;;;11.45;6.53;;;;;;;12.65;55.33;100051.31;4943510;28;123732;-68
2024/03/01 02:11:40;;;;;;;9.45;5.90;;;;;;;12.64;55.41;100054.94;4943058;28;114256;-68
2024/03/01 02:14:09;;;;;;;10.95;6.07;;;;;;;12.63;55.30;100047.06;4945155;28;114053;-68
2024/03/01 02:16:36;;;;;;;10.27;5.88;;;;;;;12.59;55.47;100040.25;4948268;28;123104;-67
2024/03/01 02:19:12;;;;;;;9.05;5.65;;;;;;;12.55;55.34;100039.59;4949929;28;123862;-67
2024/03/01 02:22:03;;;;;;;9.60;6.00;;;;;;;12.52;55.31;100039.78;4946793;28;114600;-67
2024/03/01 02:24:31;;;;;;;11.32;5.40;;;;;;;12.48;55.32;100032.13;4942071;28;114986;-67
2024/03/01 02:26:58;;;;;;;8.93;5.78;;;;;;;12.43;55.33;100024.47;4949240;28;123201;-67
2024/03/01 02:29:29;;;;;;;10.05;5.72;;;;;;;12.38;55.28;100026.59;4948649;28;124255;-67
2024/03/01 02:31:57;;;;;;;8.30;5.68;;;;;;;12.34;55.38;100022.41;4950864;28;114975;-67
2024/03/01 02:35:17;;;;;;;9.40;5.97;;;;;;;12.30;55.38;100004.97;4941032;28;114468;-68
2024/03/01 02:37:46;;;;;;;10.02;6.50;;;;;;;12.24;55.49;99999.16;4966859;22;123477;-74
2024/03/01 02:40:13;;;;;;;9.38;5.97;;;;;;;12.22;55.54;100003.69;4932195;28;122857;-76
2024/03/01 02:43:03;;;;;;;8.68;5.50;;;;;;;12.18;55.67;99999.53;4935081;28;114663;-76
2024/03/01 03:00:46;;;;;;;7.03;4.57;;;;;;;12.04;56.68;99975.69;4934268;26;97289;-69
2024/03/01 03:03:13;;;;;;;6.50;4.18;;;;;;;12.05;56.89;99966.78;4932374;28;123712;-69
2024/03/01 03:05:40;;;;;;;6.80;4.07;;;;;;;12.10;57.03;99969.97;4927040;28;114420;-69
2024/03/01 03:08:08;;;;;;;6.03;3.80;;;;;;;12.14;57.11;99976.78;4924263;28;113575;-69
2024/03/01 03:10:35;;;;;;;6.10;3.85;;;;;;;12.18;57.33;99977.44;4927327;28;124498;-69
2024/03/01 03:13:03;;;;;;;7.10;3.78;;;;;;;12.24;57.59;99977.91;4924894;28;123943;-69
2024/03/01 03:15:30;;;;;;;5.13;3.40;;;;;;;12.30;57.64;99981.09;4930691;28;114465;-69
2024/03/01 03:17:59;;;;;;;6.03;3.50;;;;;;;12.37;57.84;99982.38;4931044;28;116304;-69
2024/03/01 03:20:26;;;;;;;4.68;3.25;;;;;;;12.43;57.53;99981.97;4930689;28;123855;-69
2024/03/01 03:22:54;;;;;;;5.13;3.20;;;;;;;12.50;57.96;99982.44;4914809;28;123501;-69
2024/03/01 03:25:21;;;;;;;6.07;3.40;;;;;;;12.56;57.90;99982.84;4931257;28;114414;-69
2024/03/01 03:27:48;;;;;;;5.18;3.30;;;;;;;12.61;57.91;99986.06;4931238;28;114249;-69
2024/03/01 03:30:16;;;;;;;5.30;3.47;;;;;;;12.68;57.88;99977.66;4929372;28;123866;-69
2024/03/01 03:32:43;;;;;;;5.68;3.45;;;;;;;12.74;57.89;99995.88;4925056;28;123751;-69
2024/03/01 03:35:11;;;;;;;5.82;3.50;;;;;;;12.78;57.99;99987.56;4931822;28;114178;-69
2024/03/01 03:37:38;;;;;;;5.35;3.40;;;;;;;12.82;58.05;99988.22;4918315;28;113906;-69
2024/03/01 03:40:15;;;;;;;6.65;3.33;;;;;;;12.85;57.95;99988.03;4930013;28;124369;-69
2024/03/01 03:42:43;;;;;;;4.45;3.20;;;;;;;12.87;57.94;99990.56;4923644;28;123599;-69
2024/03/01 03:45:11;;;;;;;5.93;3.42;;;;;;;12.89;57.85;99994.81;4915732;28;114195;-69
2024/03/01 03:47:38;;;;;;;4.03;2.33;;;;;;;12.91;57.80;99987.59;4927480;28;113403;-69
2024/03/01 03:50:07;;;;;;;4.72;2.60;;;;;;;12.92;57.93;99989.31;4921203;28;125462;-68
2024/03/01 03:52:35;;;;;;;4.75;2.50;;;;;;;12.95;57.97;99999.72;4930132;28;123191;-69
2024/03/01 03:55:04;;;;;;;4.18;2.60;;;;;;;12.96;57.93;100001.41;4912083;28;114151;-68
2024/03/01 03:57:33;;;;;;;4.20;2.40;;;;;;;12.97;57.97;99997.78;4922545;28;114120;-68
2024/03/01 04:00:03;;;;;;;6.18;2.97;;;;;;;13.00;58.02;99997.59;4927197;28;124336;-68
2024/03/01 04:02:36;;;;;;;6.90;3.40;;;;;;;13.01;58.10;99999.28;4912408;28;124626;-68
2024/03/01 04:05:04;;;;;;;4.82;3.35;;;;;;;13.03;58.25;100002.72;4931434;28;115573;-68
2024/03/01 04:07:32;;;;;;;5.50;3.65;;;;;;;13.04;58.26;100001.72;4926445;28;114231;-68
2024/03/01 04:09:59;;;;;;;5.78;3.00;;;;;;;13.05;58.34;100022.06;4932560;28;124099;-69
2024/03/01 04:12:27;;;;;;;5.47;3.38;;;;;;;13.05;58.32;100016.75;4930265;28;122933;-69
2024/03/01 04:14:55;;;;;;;5.10;3.20;;;;;;;13.08;58.70;100057.34;4923737;28;114103;-69
2024/03/01 04:17:24;;;;;;;3.97;2.80;;;;;;;13.08;58.48;100068.00;4930224;28;114683;-69
2024/03/01 04:19:55;;;;;;;3.00;2.10;;;;;;;13.02;58.49;100078.09;4930576;28;124031;-68
2024/03/01 04:22:22;;;;;;;2.78;2.28;;;;;;;12.93;58.23;100081.34;4928570;28;123153;-69
2024/03/01 04:24:51;;;;;;;2.42;2.05;;;;;;;12.84;58.25;100092.59;4925903;28;114178;-69
2024/03/01 04:27:18;;;;;;;2.63;1.45;;;;;;;12.75;58.31;100093.19;4921576;28;114652;-69
2024/03/01 04:29:45;;;;;;;2.20;1.30;;;;;;;12.66;58.19;100092.03;4922847;28;123891;-69
2024/03/01 04:32:13;;;;;;;1.85;1.08;;;;;;;12.58;58.22;100097.84;4917193;28;123388;-69
2024/03/01 04:34:40;;;;;;;1.58;1.30;;;;;;;12.46;58.16;100104.78;4931626;28;114060;-69
2024/03/01 04:37:07;;;;;;;2.40;1.50;;;;;;;12.39;58.23;100097.31;4930932;28;114193;-69
2024/03/01 04:39:34;;;;;;;2.28;1.70;;;;;;;12.32;58.30;100096.00;4919833;28;123997;-69
2024/03/01 04:42:02;;;;;;;2.47;2.08;;;;;;;12.27;58.35;100102.47;4929491;28;124657;-69
2024/03/01 04:44:29;;;;;;;3.13;2.13;;;;;;;12.23;58.59;100103.63;4932565;28;114281;-69
2024/03/01 04:46:57;;;;;;;2.88;2.45;;;;;;;12.20;58.51;100114.41;4930903;28;113573;-69
2024/03/01 04:49:24;;;;;;;3.40;2.88;;;;;;;12.16;58.61;100115.56;4931596;28;124296;-69
2024/03/01 04:51:52;;;;;;;4.22;2.60;;;;;;;12.12;58.77;100122.03;4926229;28;124275;-69
2024/03/01 04:54:19;;;;;;;3.20;2.70;;;;;;;12.07;58.58;100125.00;4928290;28;115558;-69
2024/03/01 04:56:46;;;;;;;3.30;2.25;;;;;;;12.01;58.60;100119.19;4929252;28;114679;-69
2024/03/01 04:59:14;;;;;;;2.90;2.30;;;;;;;11.96;58.66;100129.25;4919222;28;124688;-69
2024/03/01 05:01:42;;;;;;;3.55;2.45;;;;;;;11.92;58.76;100135.69;4922251;28;123947;-69
2024/03/01 05:04:10;;;;;;;5.15;2.22;;;;;;;11.88;58.90;100135.88;4930551;28;114860;-69
2024/03/01 05:06:37;;;;;;;3.55;2.28;;;;;;;11.85;58.80;100136.03;4930084;28;114692;-68
2024/03/01 05:09:07;;;;;;;2.80;2.30;;;;;;;11.81;58.77;100150.47;4930010;28;124419;-69
2024/03/01 05:11:35;;;;;;;3.03;2.47;;;;;;;11.75;58.83;100150.81;4923925;28;123349;-68
2024/03/01 05:14:04;;;;;;;3.08;2.45;;;;;;;11.68;58.79;100160.97;4924335;28;113306;-68
2024/03/01 05:16:31;;;;;;;2.78;2.35;;;;;;;11.63;58.96;100162.19;4929947;28;114201;-68
2024/03/01 05:19:00;;;;;;;4.25;2.50;;;;;;;11.60;59.06;100162.34;4921846;28;124620;-68
2024/03/01 05:21:27;;;;;;;3.67;2.88;;;;;;;11.53;59.08;100161.00;4921565;28;124100;-68
2024/03/01 05:23:54;;;;;;;4.53;2.83;;;;;;;11.48;59.05;100159.50;4923441;28;114438;-69
2024/03/01 05:26:25;;;;;;;4.45;2.65;;;;;;;11.43;59.16;100172.19;4925238;28;114962;-69
2024/03/01 05:28:53;;;;;;;3.58;2.72;;;;;;;11.37;59.07;100177.84;4939935;28;124826;-68
2024/03/01 05:31:21;;;;;;;3.80;2.88;;;;;;;11.34;59.38;100188.66;4926250;28;124452;-68
2024/03/01 05:33:56;;;;;;;3.88;2.60;;;;;;;11.29;59.12;100191.56;4929177;28;114325;-69
2024/03/01 05:36:23;;;;;;;3.90;3.00;;;;;;;11.25;59.09;100194.47;4927114;28;113989;-69
2024/03/01 05:38:50;;;;;;;7.97;3.55;;;;;;;11.22;59.13;100190.19;4925280;28;124343;-68
2024/03/01 05:41:18;;;;;;;5.57;3.22;;;;;;;11.19;59.31;100178.91;4926022;28;123613;-68
2024/03/01 05:43:46;;;;;;;4.78;3.00;;;;;;;11.16;59.19;100181.75;4914761;28;116360;-68
2024/03/01 05:46:14;;;;;;;4.40;3.08;;;;;;;11.14;59.35;100181.84;4925811;28;114524;-68
2024/03/01 05:48:42;;;;;;;5.38;2.95;;;;;;;11.13;59.34;100189.88;4926393;28;122949;-68
2024/03/01 05:51:11;;;;;;;6.78;3.15;;;;;;;11.13;59.54;100196.03;4928442;28;124669;-68
2024/03/01 05:53:41;;;;;;;6.57;3.30;;;;;;;11.14;59.38;100202.19;4928792;28;114792;-68
2024/03/01 05:56:17;;;;;;;4.03;2.78;;;;;;;11.14;59.34;100210.16;4930156;28;113966;-68
2024/03/01 05:58:46;;;;;;;4.57;3.00;;;;;;;11.09;59.27;100208.63;4905490;28;124130;-68
2024/03/01 06:01:16;;;;;;;3.70;2.78;;;;;;;11.07;59.63;100218.44;4924463;28;123508;-68
2024/03/01 06:03:45;;;;;;;4.45;2.50;;;;;;;11.04;59.47;100212.47;4924273;28;114353;-68
2024/03/01 06:06:18;;;;;;;5.90;2.58;;;;;;;11.03;59.49;100213.41;4930119;28;113062;-68
2024/03/01 06:08:47;;;;;;;4.70;2.40;;;;;;;11.00;59.45;100222.41;4922698;28;123784;-69
2024/03/01 06:11:15;;;;;;;3.53;2.08;;;;;;;10.98;59.40;100229.59;4925083;28;124000;-68
2024/03/01 06:13:44;;;;;;;3.45;2.00;;;;;;;10.94;59.41;100222.72;4903796;28;113968;-69
2024/03/01 06:16:11;;;;;;;3.25;1.60;;;;;;;10.93;59.30;100231.63;4914031;28;112989;-69
2024/03/01 06:18:39;;;;;;;4.95;1.55;;;;;;;10.90;59.40;100226.50;4928648;28;124572;-69
2024/03/01 06:21:06;;;;;;;2.97;1.48;;;;;;;10.89;59.32;100227.44;4930008;28;123897;-68
2024/03/01 06:23:33;;;;;;;2.92;1.17;;;;;;;10.86;59.29;100230.25;4926824;28;114175;-69
2024/03/01 06:26:01;;;;;;;5.30;1.80;;;;;;;10.84;59.32;100237.44;4931730;28;112960;-69
2024/03/01 06:28:28;;;;;;;1.83;1.23;;;;;;;10.83;59.15;100241.03;4929625;28;124141;-69
2024/03/01 06:30:55;;;;;;;4.32;1.50;;;;;;;10.81;59.43;100237.59;4929319;28;123774;-68
2024/03/01 06:33:24;;;;;;;2.25;1.40;;;;;;;10.80;59.18;100246.50;4930291;28;114339;-69
2024/03/01 06:35:51;;;;;;;3.45;1.60;;;;;;;10.80;59.05;100246.50;4930297;28;114794;-69
2024/03/01 06:38:19;;;;;;;3.50;1.58;;;;;;;10.77;59.14;100246.66;4924897;28;123360;-69
2024/03/01 06:40:46;;;;;;;4.20;1.70;;;;;;;10.76;59.17;100260.88;4931532;28;123796;-68
2024/03/01 06:43:13;;;;;;;4.32;1.73;;;;;;;10.73;59.24;100251.28;4926160;28;113199;-69
2024/03/01 06:45:41;;;;;;;2.58;1.65;;;;;;;10.73;59.07;100250.44;4921656;28;114337;-69
2024/03/01 06:48:08;;;;;;;5.68;2.10;;;;;;;10.73;59.40;100266.31;4930670;28;125295;-70
2024/03/01 06:50:38;;;;;;;2.90;1.63;;;;;;;10.73;59.37;100261.88;4930452;28;123823;-68
2024/03/01 06:53:05;;;;;;;4.60;2.00;;;;;;;10.75;59.43;100267.09;4927663;28;114249;-68
2024/03/01 06:55:33;;;;;;;6.70;2.42;;;;;;;10.74;59.25;100268.00;4926333;28;113633;-69
2024/03/01 06:58:00;;;;;;;6.00;2.45;;;;;;;10.73;59.32;100276.91;4927908;28;123110;-68
2024/03/01 07:00:28;;;;;;;5.03;2.70;;;;;;;10.71;59.17;100285.78;4931841;28;123624;-69
2024/03/01 07:02:56;;;;;;;7.07;3.00;;;;;;;10.71;59.50;100288.44;4926729;28;113829;-69
2024/03/01 07:05:23;;;;;;;5.35;3.15;;;;;;;10.70;59.51;100289.38;4931868;28;113001;-69
2024/03/01 07:07:50;;;;;;;6.18;3.17;;;;;;;10.70;59.48;100284.09;4928810;28;123508;-69
2024/03/01 07:10:18;;;;;;;6.80;3.50;;;;;;;10.70;59.48;100292.03;4932177;28;123517;-69
2024/03/01 07:12:45;;;;;;;6.68;3.65;;;;;;;10.70;59.48;100294.69;4930136;28;114295;-69
2024/03/01 07:15:14;;;;;;;8.18;3.63;;;;;;;10.70;59.47;100294.69;4929401;28;114056;-68
2024/03/01 07:17:41;;;;;;;6.88;3.20;;;;;;;10.69;59.48;100286.81;4930972;28;124000;-68
2024/03/01 07:20:09;;;;;;;5.88;3.45;;;;;;;10.71;59.46;100300.81;4928496;28;123760;-68
2024/03/01 07:22:37;;;;;;;9.23;4.43;;;;;;;10.71;59.47;100293.72;4935560;22;115486;-74
2024/03/01 07:25:05;;;;;;;6.15;3.30;;;;;;;10.73;59.76;100303.41;4943776;28;114189;-75
2024/03/01 07:27:35;;;;;;;7.07;3.63;;;;;;;10.75;59.55;100304.16;4946431;28;124843;-77
2024/03/01 07:30:04;;;;;;;10.90;3.63;;;;;;;10.77;59.61;100304.94;4930993;28;123314;-75
2024/03/01 07:32:34;;;;;;;7.60;4.05;;;;;;;10.78;59.83;100306.66;4933140;28;114167;-75
2024/03/01 07:35:05;;;;;;;8.30;4.20;;;;;;;10.80;59.63;100304.78;4931462;28;113709;-75
2024/03/01 07:37:38;;;;;;;7.97;4.25;;;;;;;10.81;59.72;100307.34;4931499;28;124097;-77
2024/03/01 07:40:07;;;;;;;11.10;5.00;;;;;;;10.82;59.70;100302.91;4934841;28;124120;-76
2024/03/01 07:42:35;;;;;;;8.23;4.80;;;;;;;10.82;59.74;100298.44;4932473;28;113129;-76
2024/03/01 07:45:04;;;;;;;10.82;4.88;;;;;;;10.83;59.89;100299.28;4929454;28;114344;-76
2024/03/01 07:47:33;;;;;;;9.55;5.55;;;;;;;10.85;59.75;100289.47;4929052;28;124407;-76
2024/03/01 07:50:02;;;;;;;8.20;4.53;;;;;;;10.85;59.61;100292.13;4931949;28;124194;-76
2024/03/01 07:52:30;;;;;;;11.63;5.50;;;;;;;10.86;59.73;100285.91;4925549;28;114369;-76
2024/03/01 07:54:57;;;;;;;9.32;5.22;;;;;;;10.88;59.64;100286.66;4932859;28;114140;-76
2024/03/01 07:57:27;;;;;;;11.18;5.65;;;;;;;10.88;59.67;100294.59;4942300;28;124870;-76
2024/03/01 07:59:54;;;;;;;12.32;5.40;;;;;;;10.90;59.46;100295.38;4928337;28;123609;-75
2024/03/01 08:02:25;;;;;;;10.63;4.78;;;;;;;10.93;59.51;100295.22;4929679;28;114884;-76
2024/03/01 08:04:52;;;;;;;9.13;4.60;;;;;;;10.92;59.61;100296.16;4933089;28;114041;-76
2024/03/01 08:07:20;;;;;;;9.77;4.90;;;;;;;10.92;59.23;100298.78;4926859;28;124042;-76
2024/03/01 08:09:48;;;;;;;7.25;4.45;;;;;;;10.91;59.36;100297.09;4931676;28;123827;-76
2024/03/01 08:12:20;;;;;;;7.25;4.35;;;;;;;10.92;59.26;100301.44;4928092;28;113861;-76
2024/03/01 08:14:50;;;;;;;9.95;4.63;;;;;;;10.91;59.20;100313.00;4923578;28;114978;-76
2024/03/01 08:17:18;;;;;;;10.38;4.63;;;;;;;10.93;59.35;100311.13;4927023;28;124495;-76
2024/03/01 08:19:50;;;;;;;10.30;4.40;;;;;;;10.94;59.37;100304.84;4931929;28;123888;-76
2024/03/01 08:22:20;;;;;;;8.77;4.45;;;;;;;10.95;59.37;100303.94;4928238;28;114347;-76
2024/03/01 08:24:49;;;;;;;10.55;4.78;;;;;;;10.95;59.28;100303.94;4935152;28;114924;-76
2024/03/01 08:27:25;;;;;;;9.25;4.60;;;;;;;10.95;59.30;100303.94;4927609;28;124332;-79
2024/03/01 08:29:52;;;;;;;7.70;4.00;;;;;;;10.98;59.29;100309.06;4932967;28;122997;-77
2024/03/01 08:32:22;;;;;;;8.00;4.65;;;;;;;11.02;59.15;100307.09;4934617;28;114225;-76
2024/03/01 08:34:52;;;;;;;8.50;4.25;;;;;;;11.01;59.15;100303.59;4935610;28;114570;-76
2024/03/01 08:37:23;;;;;;;9.82;4.53;;;;;;;10.99;58.96;100300.16;4916187;28;123191;-76
2024/03/01 08:39:53;;;;;;;10.20;4.30;;;;;;;10.99;59.07;100300.16;4922351;28;123464;-76
2024/03/01 08:42:24;;;;;;;9.35;3.97;;;;;;;11.01;59.35;100303.59;4929236;28;114730;-76
2024/03/01 08:44:54;;;;;;;8.38;4.25;;;;;;;11.03;59.03;100312.31;4935335;28;96869;-76
2024/03/01 08:47:37;;;;;;;10.10;4.07;;;;;;;11.07;59.22;100311.19;4930160;28;124608;-75
2024/03/01 08:50:20;;;;;;;9.13;3.92;;;;;;;11.10;59.39;100313.69;4932781;28;121831;-75
2024/03/01 08:52:49;;;;;;;7.10;3.55;;;;;;;11.17;59.18;100324.81;4940653;28;114506;-76
2024/03/01 08:55:16;;;;;;;10.60;3.50;;;;;;;11.21;58.95;100325.50;4930233;28;113529;-76
2024/03/01 08:57:50;;;;;;;7.90;3.45;;;;;;;11.24;59.04;100327.94;4929675;28;123300;-76
2024/03/01 09:00:26;;;;;;;9.35;3.92;;;;;;;11.24;59.07;100333.25;4932260;28;124327;-76
2024/03/01 09:02:54;;;;;;;8.40;3.50;;;;;;;11.27;59.00;100335.75;4928647;28;115361;-75
2024/03/01 09:05:21;;;;;;;8.77;3.08;;;;;;;11.30;59.04;100330.25;4917214;28;113884;-76
2024/03/01 09:07:49;;;;;;;7.38;3.20;;;;;;;11.30;58.94;100319.66;4934037;28;124674;-75
2024/03/01 09:10:27;;;;;;;7.60;3.22;;;;;;;11.31;58.66;100331.97;4926459;28;123833;-75
2024/03/01 09:12:55;;;;;;;6.78;2.95;;;;;;;11.33;58.54;100334.53;4931395;28;114231;-75
2024/03/01 09:15:27;;;;;;;6.50;3.08;;;;;;;11.36;58.72;100329.94;4930079;28;113812;-75
2024/03/01 09:17:55;;;;;;;7.55;4.00;;;;;;;11.39;58.69;100350.94;4948245;28;123723;-76
2024/03/01 09:20:36;;;;;;;8.10;3.22;;;;;;;11.43;58.48;100341.03;4932423;28;123988;-75
2024/03/01 09:23:12;;;;;;;5.30;2.92;;;;;;;11.46;58.61;100347.00;4932042;28;114206;-76
2024/03/01 09:26:00;;;;;;;9.65;3.17;;;;;;;11.50;58.61;100348.53;4934052;28;115140;-76
2024/03/01 09:28:27;;;;;;;6.10;3.28;;;;;;;11.58;58.59;100344.59;4931359;28;124560;-74
2024/03/01 09:30:57;;;;;;;6.00;2.60;;;;;;;11.62;58.74;100346.13;4919382;28;123871;-75
2024/03/01 09:33:25;;;;;;;6.40;2.70;;;;;;;11.69;58.72;100331.56;4927467;28;114804;-75
2024/03/01 09:35:53;;;;;;;5.95;2.60;;;;;;;11.78;58.76;100331.03;4937982;28;113565;-75
2024/03/01 09:38:22;;;;;;;4.43;2.50;;;;;;;11.82;58.48;100343.19;4931466;28;124255;-76
2024/03/01 09:41:11;;;;;;;7.65;2.53;;;;;;;11.86;58.19;100334.09;4930593;28;123995;-76
2024/03/01 09:44:04;;;;;;;8.35;2.30;;;;;;;11.94;58.42;100330.16;4933219;28;114855;-75
2024/03/01 09:46:45;;;;;;;6.05;2.03;;;;;;;12.00;58.35;100320.06;4924928;28;113929;-75
2024/03/01 09:49:51;;;;;;;5.20;2.15;;;;;;;12.06;58.24;100318.84;4933071;28;124088;-76
2024/03/01 09:52:56;;;;;;;4.30;1.90;;;;;;;12.13;58.25;100325.50;4906674;28;124720;-75
2024/03/01 09:55:37;;;;;;;4.22;1.90;;;;;;;12.19;58.17;100329.59;4932638;28;115364;-75
2024/03/01 09:58:26;;;;;;;4.57;1.88;;;;;;;12.26;58.14;100315.84;4932149;28;115120;-75
2024/03/01 10:01:04;;;;;;;6.85;2.50;;;;;;;12.38;58.22;100313.38;4931149;28;123538;-76
2024/03/01 10:03:44;;;;;;;4.30;2.00;;;;;;;12.48;58.21;100314.53;4932893;28;123192;-75
2024/03/01 10:06:11;;;;;;;4.35;2.10;;;;;;;12.57;58.15;100313.97;4934235;28;114282;-75
2024/03/01 10:09:13;;;;;;;4.93;2.17;;;;;;;12.63;57.87;100313.56;4933937;28;113105;-75
2024/03/01 10:12:06;;;;;;;4.03;2.15;;;;;;;12.69;57.78;100306.16;4934579;28;123232;-75
2024/03/01 10:14:52;;;;;;;5.28;2.20;;;;;;;12.73;57.76;100302.38;4935418;28;123680;-75
2024/03/01 10:17:30;;;;;;;5.45;2.10;;;;;;;12.76;57.79;100302.19;4933214;28;114262;-75
2024/03/01 10:20:09;;;;;;;3.85;2.00;;;;;;;12.82;57.75;100296.47;4933166;28;113710;-75
2024/03/01 10:22:56;;;;;;;4.45;2.10;;;;;;;12.87;57.50;100302.38;4929196;28;124657;-75
2024/03/01 10:25:27;;;;;;;6.68;2.20;;;;;;;12.93;57.52;100309.94;4930770;28;123893;-74
2024/03/01 10:28:14;;;;;;;3.85;1.85;;;;;;;13.00;57.33;100295.31;4930510;28;113819;-74
2024/03/01 10:31:10;;;;;;;3.75;1.88;;;;;;;13.09;57.30;100293.00;4931011;28;113859;-74
2024/03/01 10:33:44;;;;;;;4.47;2.28;;;;;;;13.12;57.28;100283.03;4904196;28;123921;-74
2024/03/01 10:36:12;;;;;;;3.63;2.10;;;;;;;13.16;57.13;100289.00;4948227;28;124030;-76
2024/03/01 10:38:53;;;;;;;4.50;1.90;;;;;;;13.19;56.90;100283.50;4932479;28;113808;-74
2024/03/01 10:41:58;;;;;;;2.70;1.73;;;;;;;13.23;56.84;100274.34;4924247;28;114363;-74
2024/03/01 10:44:53;;;;;;;4.82;2.00;;;;;;;13.25;56.61;100272.44;4934377;28;123779;-75
2024/03/01 10:47:23;;;;;;;5.53;1.90;;;;;;;13.29;56.84;100268.63;4930606;28;124552;-75
2024/03/01 10:50:15;;;;;;;4.40;1.92;;;;;;;13.39;56.93;100267.13;4932295;28;116094;-74
2024/03/01 10:53:07;;;;;;;3.47;1.73;;;;;;;13.46;56.81;100264.03;4929862;28;115428;-75
2024/03/01 10:55:39;;;;;;;4.60;1.50;;;;;;;13.53;56.65;100260.88;4921280;28;124426;-78
2024/03/01 10:58:17;;;;;;;3.13;1.73;;;;;;;13.60;56.53;100245.38;4945967;28;123274;-77
2024/03/01 11:01:04;;;;;;;3.55;2.08;;;;;;;13.66;56.42;100239.63;4947174;28;114358;-76
2024/03/01 11:03:41;;;;;;;4.05;1.52;;;;;;;13.66;56.16;100234.28;4931474;28;113777;-78
2024/03/01 11:06:56;;;;;;;4.57;1.67;;;;;;;13.66;56.11;100226.31;4856825;29;125580;-77
2024/03/01 11:09:50;;;;;;;3.40;1.60;;;;;;;13.66;55.94;100223.66;4840902;29;122988;-77
2024/03/01 11:12:23;;;;;;;3.70;1.40;;;;;;;13.70;55.96;100213.66;4851047;29;114273;-77
2024/03/01 11:15:07;;;;;;;3.75;1.40;;;;;;;13.73;55.97;100219.63;4847726;29;113955;-76
2024/03/01 11:17:37;;;;;;;2.10;1.10;;;;;;;13.76;55.83;100219.38;4846117;29;124652;-78
2024/03/01 11:20:11;;;;;;;3.92;1.50;;;;;;;13.79;55.88;100203.22;4849435;29;123809;-76
2024/03/01 11:22:45;;;;;;;3.90;1.58;;;;;;;13.83;55.60;100198.53;4843691;29;113835;-78
2024/03/01 11:25:15;;;;;;;1.75;1.05;;;;;;;13.89;55.74;100199.94;4922469;28;114351;-76
2024/03/01 11:28:07;;;;;;;1.70;0.93;;;;;;;13.96;55.72;100187.91;4917688;28;124355;-76
2024/03/01 11:30:42;;;;;;;6.07;1.23;;;;;;;14.00;55.46;100189.38;4921074;28;124227;-75
2024/03/01 11:33:21;;;;;;;3.13;1.08;;;;;;;14.01;55.26;100191.06;4944120;28;114283;-75
2024/03/01 11:36:06;;;;;;;3.40;1.20;;;;;;;14.02;55.15;100187.47;4933775;28;113929;-75
2024/03/01 11:38:58;;;;;;;3.45;1.10;;;;;;;14.04;55.05;100190.88;4929951;28;124846;-75
2024/03/01 11:41:50;;;;;;;3.80;1.10;;;;;;;14.07;54.94;100184.47;4930776;28;122742;-75
2024/03/01 11:44:31;;;;;;;1.77;1.05;;;;;;;14.10;55.18;100169.13;4933759;28;115224;-74
2024/03/01 11:47:30;;;;;;;2.22;1.10;;;;;;;14.11;54.97;100170.84;4930721;28;114094;-76
2024/03/01 11:49:57;;;;;;;2.35;1.10;;;;;;;14.14;54.82;100159.97;4936685;28;123866;-76
2024/03/01 11:52:52;;;;;;;3.03;1.13;;;;;;;14.20;54.84;100148.88;4907764;28;122315;-75
2024/03/01 11:55:42;;;;;;;2.07;1.10;;;;;;;14.28;54.86;100144.81;4924083;28;116088;-75